Time;durP1;ratioP1;P1;durP2;ratioP2;P2;SDS_P1;SDS_P2;PMS_P1;PMS_P2;Temp;Humidity;BMP_temperature;BMP_pressure;BME280_temperature;BME280_humidity;BME280_pressure;Samples;Min_cycle;Max_cycle;Signal;HPM_P1;HPM_P2
2022/06/23 00:01:46;;;;;;;10.93;5.22;;;21.30;99.90;;;;;;5062562;28;20091;-80
2022/06/23 00:04:19;;;;;;;11.82;4.32;;;21.40;99.90;;;;;;5060377;28;20647;-80
2022/06/23 00:06:47;;;;;;;19.30;4.80;;;21.40;99.90;;;;;;5065086;28;20489;-81
2022/06/23 00:09:28;;;;;;;11.98;4.60;;;21.40;99.90;;;;;;5063327;28;20561;-80
2022/06/23 00:11:55;;;;;;;15.05;4.55;;;21.40;99.90;;;;;;5079114;28;20032;-80
2022/06/23 00:14:21;;;;;;;19.50;4.28;;;21.40;99.90;;;;;;5065148;28;20085;-81
2022/06/23 00:16:46;;;;;;;16.75;4.53;;;21.40;99.90;;;;;;5063882;28;20041;-80
2022/06/23 00:19:14;;;;;;;18.83;3.65;;;21.40;99.90;;;;;;5063350;28;20546;-80
2022/06/23 00:21:44;;;;;;;16.92;4.15;;;21.30;99.90;;;;;;5063387;28;20586;-81
2022/06/23 00:24:21;;;;;;;15.45;4.00;;;21.40;99.90;;;;;;5066532;28;20036;-80
2022/06/23 00:26:47;;;;;;;30.55;4.90;;;21.30;99.90;;;;;;5080139;28;20189;-81
2022/06/23 00:29:18;;;;;;;8.18;3.50;;;21.30;99.90;;;;;;5066074;28;20048;-81
2022/06/23 00:32:05;;;;;;;5.82;2.67;;;21.20;99.90;;;;;;5063885;28;20040;-81
2022/06/23 00:34:40;;;;;;;16.55;2.75;;;21.20;99.90;;;;;;5079664;28;20048;-81
2022/06/23 00:37:14;;;;;;;14.30;3.58;;;21.20;99.90;;;;;;5063025;28;20049;-80
2022/06/23 00:39:54;;;;;;;8.98;3.50;;;21.20;99.90;;;;;;5063464;28;20094;-81
2022/06/23 00:42:49;;;;;;;8.68;2.90;;;21.10;99.90;;;;;;5061372;28;20079;-80
2022/06/23 00:45:44;;;;;;;11.93;3.17;;;21.20;99.90;;;;;;5064045;28;20644;-80
2022/06/23 00:48:32;;;;;;;10.63;2.25;;;21.10;99.90;;;;;;5064087;28;20431;-84
2022/06/23 00:51:08;;;;;;;9.20;2.50;;;21.00;99.90;;;;;;5078010;28;20059;-82
2022/06/23 00:53:43;;;;;;;10.68;3.28;;;21.00;99.90;;;;;;5062449;28;20041;-80
2022/06/23 00:56:15;;;;;;;7.75;2.17;;;21.00;99.90;;;;;;5061637;28;20040;-80
2022/06/23 00:58:49;;;;;;;6.55;2.22;;;21.00;99.90;;;;;;5062448;28;20037;-80
2022/06/23 01:01:18;;;;;;;6.60;2.45;;;21.00;99.90;;;;;;5060134;28;20501;-80
2022/06/23 01:04:13;;;;;;;3.38;1.90;;;21.00;99.90;;;;;;5061353;28;20045;-81
2022/06/23 01:06:43;;;;;;;10.35;2.28;;;20.90;99.90;;;;;;5058977;28;20036;-80
2022/06/23 01:09:27;;;;;;;9.48;2.95;;;20.80;99.90;;;;;;5063955;28;20040;-80
2022/06/23 01:12:00;;;;;;;9.65;2.95;;;20.90;99.90;;;;;;5077429;28;20780;-80
2022/06/23 01:14:34;;;;;;;5.65;2.97;;;20.90;99.90;;;;;;5061894;28;20088;-81
2022/06/23 01:17:37;;;;;;;10.52;3.10;;;20.80;99.90;;;;;;5060478;28;20051;-80
2022/06/23 01:20:18;;;;;;;5.15;2.05;;;20.80;99.90;;;;;;5059546;28;20087;-80
2022/06/23 01:22:50;;;;;;;6.50;2.15;;;20.70;99.90;;;;;;5063581;28;20080;-80
2022/06/23 01:25:18;;;;;;;8.10;2.30;;;20.70;99.90;;;;;;5077017;28;20047;-81
2022/06/23 01:27:52;;;;;;;7.15;1.92;;;20.70;99.90;;;;;;5063272;28;20045;-80
2022/06/23 01:30:20;;;;;;;6.28;2.83;;;20.70;99.90;;;;;;5062090;28;20501;-80
2022/06/23 01:33:24;;;;;;;4.40;2.10;;;20.60;99.90;;;;;;5062565;28;20088;-80
2022/06/23 01:36:22;;;;;;;7.97;2.30;;;20.70;99.90;;;;;;5061890;28;20037;-80
2022/06/23 01:38:54;;;;;;;8.18;2.03;;;20.60;99.90;;;;;;5063131;28;20494;-80
2022/06/23 01:41:24;;;;;;;;;;;20.60;99.90;;;;;;5061424;28;20119;-80
2022/06/23 01:43:59;;;;;;;12.15;2.20;;;20.60;99.90;;;;;;5061241;28;20351;-80
2022/06/23 01:46:35;;;;;;;5.97;2.88;;;20.50;99.90;;;;;;5076157;28;20552;-81
2022/06/23 01:49:17;;;;;;;7.35;2.55;;;20.50;99.90;;;;;;5061325;28;20044;-80
2022/06/23 01:51:48;;;;;;;8.23;2.03;;;20.50;99.90;;;;;;5060156;28;20383;-80
2022/06/23 01:54:20;;;;;;;6.47;2.28;;;20.50;99.90;;;;;;5061727;28;20475;-80
2022/06/23 01:57:03;;;;;;;5.93;2.70;;;20.40;99.90;;;;;;5077308;28;20844;-80
2022/06/23 01:59:53;;;;;;;8.13;2.30;;;20.40;99.90;;;;;;5060878;28;20036;-80
2022/06/23 02:02:26;;;;;;;8.13;2.60;;;20.40;99.90;;;;;;5061368;28;20112;-81
2022/06/23 02:05:11;;;;;;;11.00;2.47;;;20.40;99.90;;;;;;5062490;28;20107;-81
2022/06/23 02:07:40;;;;;;;7.13;3.30;;;20.40;99.90;;;;;;5062600;28;20519;-81
2022/06/23 02:10:24;;;;;;;9.27;3.15;;;20.40;99.90;;;;;;5043820;28;20564;-80
2022/06/23 02:13:02;;;;;;;7.95;3.83;;;20.40;99.90;;;;;;5060512;28;20045;-80
2022/06/23 02:15:34;;;;;;;7.13;3.70;;;20.40;99.90;;;;;;5078275;28;20048;-80
2022/06/23 02:18:19;;;;;;;8.20;3.95;;;20.40;99.90;;;;;;5065153;28;20147;-80
2022/06/23 02:20:57;;;;;;;10.45;4.72;;;20.50;99.90;;;;;;5079734;28;20041;-80
2022/06/23 02:23:43;;;;;;;11.25;4.85;;;20.50;99.90;;;;;;5081986;28;20052;-80
2022/06/23 02:26:33;;;;;;;11.02;4.47;;;20.50;99.90;;;;;;5062741;28;20044;-80
2022/06/23 02:29:32;;;;;;;10.20;4.55;;;20.50;99.90;;;;;;5065234;28;20040;-80
2022/06/23 02:32:23;;;;;;;7.85;3.65;;;20.60;99.90;;;;;;5064013;28;20132;-80
2022/06/23 02:35:01;;;;;;;6.90;3.75;;;20.60;99.90;;;;;;5062950;28;20053;-80
2022/06/23 02:37:48;;;;;;;11.00;4.53;;;20.60;99.90;;;;;;5066715;28;20049;-80
2022/06/23 02:40:27;;;;;;;12.35;3.97;;;20.60;99.90;;;;;;5064715;28;20064;-80
2022/06/23 02:43:03;;;;;;;9.38;3.97;;;20.70;99.90;;;;;;5058739;28;20083;-81
2022/06/23 02:46:06;;;;;;;13.43;4.28;;;20.60;99.90;;;;;;5065477;28;20482;-80
2022/06/23 02:48:51;;;;;;;13.35;5.15;;;20.60;99.90;;;;;;5078831;28;20087;-80
2022/06/23 02:51:51;;;;;;;16.50;5.03;;;20.60;99.90;;;;;;5064013;28;20044;-81
2022/06/23 02:54:31;;;;;;;11.52;4.20;;;20.60;99.90;;;;;;5064337;28;20048;-80
2022/06/23 02:56:58;;;;;;;9.50;3.35;;;20.60;99.90;;;;;;5065400;28;20052;-80
2022/06/23 02:59:48;;;;;;;9.63;3.80;;;20.60;99.90;;;;;;5065091;28;20051;-80
2022/06/23 03:02:20;;;;;;;9.25;3.15;;;20.60;99.90;;;;;;5064701;28;20075;-80
2022/06/23 03:04:49;;;;;;;;;;;20.60;99.90;;;;;;5066966;28;20037;-81
2022/06/23 03:07:28;;;;;;;11.23;3.40;;;20.50;99.90;;;;;;5079189;28;20734;-80
2022/06/23 03:10:25;;;;;;;8.00;3.35;;;20.50;99.90;;;;;;5064692;28;20049;-81
2022/06/23 03:12:56;;;;;;;6.50;3.00;;;20.50;99.90;;;;;;5063074;28;20114;-81
2022/06/23 03:15:32;;;;;;;8.55;2.83;;;20.50;99.90;;;;;;5064600;28;20466;-81
2022/06/23 03:18:07;;;;;;;9.10;3.63;;;20.60;99.90;;;;;;5064052;28;20044;-80
2022/06/23 03:20:42;;;;;;;9.00;3.83;;;20.60;99.90;;;;;;5063624;28;20037;-80
2022/06/23 03:23:35;;;;;;;11.23;3.58;;;20.60;99.90;;;;;;5068258;28;20063;-81
2022/06/23 03:26:36;;;;;;;9.02;3.58;;;20.50;99.90;;;;;;5062309;28;20563;-81
2022/06/23 03:29:05;;;;;;;10.52;3.85;;;20.50;99.90;;;;;;5061796;28;20056;-80
2022/06/23 03:31:39;;;;;;;13.43;4.38;;;20.50;99.90;;;;;;5062407;28;20044;-80
2022/06/23 03:34:18;;;;;;;9.18;3.90;;;20.50;99.90;;;;;;5062524;28;20672;-80
2022/06/23 03:36:49;;;;;;;8.02;3.97;;;20.50;99.90;;;;;;5064069;28;20048;-80
2022/06/23 03:42:25;;;;;;;9.80;3.40;;;20.50;99.90;;;;;;5063492;28;20090;-80
2022/06/23 03:45:04;;;;;;;17.40;6.15;;;20.50;99.90;;;;;;5062004;28;20052;-80
2022/06/23 03:47:30;;;;;;;15.43;4.00;;;20.50;99.90;;;;;;5065268;28;20037;-81
2022/06/23 03:50:04;;;;;;;10.77;4.32;;;20.50;99.90;;;;;;5062715;28;20076;-80
2022/06/23 03:52:47;;;;;;;10.55;4.07;;;20.50;99.90;;;;;;5064244;28;20562;-81
2022/06/23 03:55:28;;;;;;;14.60;5.10;;;20.40;99.90;;;;;;5046407;28;20045;-81
2022/06/23 03:57:56;;;;;;;11.35;4.97;;;20.40;99.90;;;;;;5060415;28;20183;-80
2022/06/23 04:00:30;;;;;;;12.80;5.00;;;20.40;99.90;;;;;;5061601;28;20041;-80
2022/06/23 04:03:35;;;;;;;14.13;5.88;;;20.40;99.90;;;;;;5064481;28;20515;-80
2022/06/23 04:06:11;;;;;;;20.45;4.72;;;20.30;99.90;;;;;;5046444;28;20094;-82
2022/06/23 04:08:46;;;;;;;16.15;4.70;;;20.30;99.90;;;;;;5063046;28;20108;-82
2022/06/23 04:14:04;;;;;;;8.13;3.53;;;20.30;99.90;;;;;;5062527;28;20542;-80
2022/06/23 04:16:33;;;;;;;7.55;3.33;;;20.30;99.90;;;;;;5061504;28;20553;-80
2022/06/23 04:19:04;;;;;;;9.05;4.20;;;20.20;99.90;;;;;;5063469;28;20087;-80
2022/06/23 04:21:30;;;;;;;7.15;3.53;;;20.30;99.90;;;;;;5060580;28;20119;-81
2022/06/23 04:24:00;;;;;;;6.35;2.63;;;20.20;99.90;;;;;;5060675;28;20076;-80
2022/06/23 04:26:42;;;;;;;7.05;2.80;;;20.20;99.90;;;;;;5063093;28;20044;-80
2022/06/23 04:29:10;;;;;;;;;;;20.10;99.90;;;;;;5061606;28;20094;-80
2022/06/23 04:31:46;;;;;;;5.22;2.92;;;20.10;99.90;;;;;;5063071;28;20405;-81
2022/06/23 04:34:27;;;;;;;8.15;2.92;;;20.10;99.90;;;;;;5061485;28;20055;-81
2022/06/23 04:36:53;;;;;;;9.35;3.13;;;20.10;99.90;;;;;;5061024;28;20079;-80
2022/06/23 04:39:45;;;;;;;9.27;2.90;;;20.00;99.90;;;;;;5061486;28;20612;-81
2022/06/23 04:42:21;;;;;;;7.57;4.10;;;20.00;99.90;;;;;;5077660;28;20049;-80
2022/06/23 04:44:51;;;;;;;8.50;4.07;;;20.10;99.90;;;;;;5062132;28;20061;-81
2022/06/23 04:47:21;;;;;;;7.40;3.90;;;20.10;99.90;;;;;;5064489;28;20637;-80
2022/06/23 04:49:57;;;;;;;4.55;3.00;;;20.10;99.90;;;;;;5063337;28;20087;-80
2022/06/23 04:52:26;;;;;;;9.77;3.45;;;20.20;99.90;;;;;;5060735;28;20123;-81
2022/06/23 04:55:26;;;;;;;6.03;3.15;;;20.10;99.90;;;;;;5061917;28;20044;-81
2022/06/23 04:58:10;;;;;;;5.75;2.80;;;20.10;99.90;;;;;;5039421;28;20049;-81
2022/06/23 05:00:49;;;;;;;5.75;3.03;;;20.10;99.90;;;;;;5062348;28;20037;-81
2022/06/23 05:03:25;;;;;;;5.28;3.15;;;20.20;99.90;;;;;;5059821;28;20052;-81
2022/06/23 05:06:20;;;;;;;10.40;4.22;;;20.20;99.90;;;;;;5060964;28;20092;-81
2022/06/23 05:08:47;;;;;;;8.75;3.60;;;20.30;99.90;;;;;;5060342;28;20056;-81
2022/06/23 05:11:39;;;;;;;8.68;4.45;;;20.30;99.90;;;;;;5077362;27;20044;-81
2022/06/23 05:14:24;;;;;;;6.82;3.40;;;20.30;99.90;;;;;;5061776;28;20036;-81
2022/06/23 05:16:55;;;;;;;13.73;4.72;;;20.40;99.90;;;;;;5059033;28;21885;-81
2022/06/23 05:19:34;;;;;;;10.90;4.78;;;20.40;99.90;;;;;;5076359;28;21053;-81
2022/06/23 05:22:08;;;;;;;10.10;4.65;;;20.40;99.90;;;;;;5043748;28;20044;-81
2022/06/23 05:24:38;;;;;;;16.75;4.00;;;20.40;99.90;;;;;;5043490;28;20051;-81
2022/06/23 05:27:14;;;;;;;9.25;3.65;;;20.40;99.90;;;;;;5060448;28;20053;-81
2022/06/23 05:30:05;;;;;;;7.30;3.30;;;20.40;99.90;;;;;;5061122;28;20508;-81
2022/06/23 05:32:35;;;;;;;12.30;4.40;;;20.40;99.90;;;;;;5062239;28;20053;-82
2022/06/23 05:35:12;;;;;;;7.82;3.58;;;20.40;99.90;;;;;;5061405;28;20087;-80
2022/06/23 05:37:46;;;;;;;7.78;4.10;;;20.40;99.90;;;;;;5058830;28;20127;-80
2022/06/23 05:40:39;;;;;;;10.07;5.68;;;20.40;99.90;;;;;;5062884;28;20137;-80
2022/06/23 05:43:05;;;;;;;11.18;4.13;;;20.30;99.90;;;;;;5051249;28;20117;-80
2022/06/23 05:45:56;;;;;;;9.82;4.13;;;20.30;99.90;;;;;;5078165;28;20098;-80
2022/06/23 05:48:27;;;;;;;8.02;4.38;;;20.30;99.90;;;;;;5064688;28;20584;-80
2022/06/23 05:50:59;;;;;;;8.73;3.83;;;20.30;99.90;;;;;;5064908;28;20543;-80
2022/06/23 05:53:36;;;;;;;9.13;4.07;;;20.30;99.90;;;;;;5065776;28;20951;-82
2022/06/23 05:56:28;;;;;;;8.15;4.00;;;20.40;99.90;;;;;;5065014;28;20066;-82
2022/06/23 05:58:54;;;;;;;13.75;4.22;;;20.50;99.90;;;;;;5055461;28;20057;-80
2022/06/23 06:02:01;;;;;;;15.20;5.13;;;20.60;99.90;;;;;;5064038;28;20348;-80
2022/06/23 06:04:31;;;;;;;10.85;6.05;;;20.70;99.90;;;;;;5021616;28;20615;-80
2022/06/23 06:06:58;;;;;;;8.68;4.88;;;20.70;99.90;;;;;;5055529;28;20115;-80
2022/06/23 06:09:36;;;;;;;11.02;5.45;;;20.70;99.90;;;;;;5045736;28;20080;-80
2022/06/23 06:12:05;;;;;;;8.30;4.57;;;20.70;99.90;;;;;;5078318;28;20044;-80
2022/06/23 06:14:38;;;;;;;9.63;4.75;;;20.80;99.90;;;;;;5064141;28;20051;-80
2022/06/23 06:17:05;;;;;;;15.18;4.38;;;20.80;99.90;;;;;;5062253;28;20469;-80
2022/06/23 06:19:33;;;;;;;8.77;4.53;;;20.80;99.90;;;;;;5062656;28;20094;-80
2022/06/23 06:22:25;;;;;;;17.77;6.40;;;20.90;99.90;;;;;;5061619;28;20049;-80
2022/06/23 06:24:55;;;;;;;12.13;5.03;;;20.90;99.90;;;;;;5043091;28;20041;-82
2022/06/23 06:27:21;;;;;;;14.15;6.30;;;20.90;99.90;;;;;;5061495;28;20537;-80
2022/06/23 06:29:49;;;;;;;11.10;5.32;;;20.90;99.90;;;;;;5041889;28;20060;-79
2022/06/23 06:32:34;;;;;;;10.52;5.82;;;21.00;99.90;;;;;;5042186;28;20037;-79
2022/06/23 06:35:41;;;;;;;7.22;4.20;;;21.00;99.90;;;;;;5059635;28;20044;-80
2022/06/23 06:38:12;;;;;;;12.93;5.53;;;21.00;99.90;;;;;;5017092;28;20037;-80
2022/06/23 06:40:41;;;;;;;9.50;5.25;;;21.00;99.90;;;;;;5009091;28;20050;-79
2022/06/23 06:43:12;;;;;;;8.98;4.85;;;21.00;99.90;;;;;;5038363;28;20045;-79
2022/06/23 06:45:40;;;;;;;8.73;5.07;;;21.10;99.90;;;;;;5060505;28;20498;-80
2022/06/23 06:48:31;;;;;;;8.25;4.18;;;21.10;99.90;;;;;;5059014;28;20051;-79
2022/06/23 06:51:04;;;;;;;9.57;4.72;;;21.00;99.90;;;;;;5061161;28;20127;-80
2022/06/23 06:53:43;;;;;;;15.55;5.72;;;21.00;99.90;;;;;;5059669;28;20530;-79
2022/06/23 06:56:26;;;;;;;15.85;5.20;;;21.00;99.90;;;;;;5074501;28;20568;-79
2022/06/23 06:59:07;;;;;;;7.75;4.18;;;21.10;99.90;;;;;;5062271;28;20059;-80
2022/06/23 07:01:36;;;;;;;12.13;6.75;;;21.20;99.90;;;;;;5044773;28;20202;-82
2022/06/23 07:04:03;;;;;;;11.65;5.20;;;21.30;99.90;;;;;;5061760;28;20127;-79
2022/06/23 07:06:47;;;;;;;8.55;4.70;;;21.40;99.90;;;;;;5063311;28;20032;-80
2022/06/23 07:09:31;;;;;;;8.38;5.18;;;21.50;99.90;;;;;;5063190;28;20056;-80
2022/06/23 07:12:21;;;;;;;9.13;4.95;;;21.50;99.90;;;;;;5062441;28;20040;-80
2022/06/23 07:14:59;;;;;;;8.57;6.07;;;21.60;99.90;;;;;;5062694;28;20033;-79
2022/06/23 07:17:37;;;;;;;9.15;5.22;;;21.60;99.90;;;;;;5063415;28;20139;-79
2022/06/23 07:20:28;;;;;;;8.25;5.30;;;21.50;99.90;;;;;;5063839;28;20655;-79
2022/06/23 07:23:01;;;;;;;7.10;4.78;;;21.30;99.90;;;;;;5032839;28;20532;-80
2022/06/23 07:25:33;;;;;;;8.95;4.00;;;21.20;99.90;;;;;;5055909;28;20139;-80
2022/06/23 07:28:13;;;;;;;6.72;4.03;;;21.10;99.90;;;;;;5060646;28;20120;-79
2022/06/23 07:30:54;;;;;;;6.15;3.53;;;21.10;99.90;;;;;;5059596;28;20100;-80
2022/06/23 07:33:25;;;;;;;7.50;3.65;;;21.10;99.90;;;;;;5046186;28;20692;-79
2022/06/23 07:36:13;;;;;;;7.53;3.90;;;21.10;99.90;;;;;;5060040;28;20049;-79
2022/06/23 07:38:51;;;;;;;12.27;3.97;;;21.20;99.90;;;;;;5063698;28;20093;-80
2022/06/23 07:41:24;;;;;;;9.10;3.80;;;21.20;99.90;;;;;;5062707;28;20121;-79
2022/06/23 07:44:17;;;;;;;6.05;3.78;;;21.30;99.90;;;;;;5060794;28;20060;-80
2022/06/23 07:46:43;;;;;;;9.35;3.83;;;21.50;99.90;;;;;;5063654;28;20045;-80
2022/06/23 07:49:09;;;;;;;7.68;4.10;;;21.80;99.90;;;;;;5062756;28;20541;-80
2022/06/23 07:51:36;;;;;;;7.10;4.28;;;21.90;99.90;;;;;;5064089;28;20091;-80
2022/06/23 07:54:04;;;;;;;6.03;3.30;;;21.90;99.90;;;;;;5063977;28;20049;-80
2022/06/23 07:56:32;;;;;;;7.85;3.92;;;21.80;99.90;;;;;;5063474;28;20535;-80
2022/06/23 07:59:11;;;;;;;8.23;3.42;;;21.60;99.90;;;;;;5057154;28;20098;-79
2022/06/23 08:02:19;;;;;;;8.88;4.30;;;21.40;99.90;;;;;;5062508;28;20033;-79
2022/06/23 08:04:54;;;;;;;7.05;3.63;;;21.30;99.90;;;;;;5018286;28;20081;-79
2022/06/23 08:07:20;;;;;;;8.15;3.85;;;21.10;99.90;;;;;;5004092;28;21032;-79
2022/06/23 08:09:57;;;;;;;7.03;3.55;;;21.10;99.90;;;;;;5036630;28;20102;-80
2022/06/23 08:12:53;;;;;;;4.78;3.20;;;21.20;99.90;;;;;;5061002;28;20135;-79
2022/06/23 08:18:54;;;;;;;5.93;3.40;;;21.60;99.90;;;;;;5063902;28;20519;-81
2022/06/23 08:21:33;;;;;;;4.05;3.33;;;21.50;99.90;;;;;;5051590;28;20059;-80
2022/06/23 08:24:08;;;;;;;9.23;4.32;;;21.50;99.90;;;;;;5062317;28;20037;-81
2022/06/23 08:26:36;;;;;;;7.43;3.25;;;21.50;99.90;;;;;;5064386;28;20172;-81
2022/06/23 08:29:06;;;;;;;4.80;3.30;;;21.50;99.90;;;;;;5063965;28;20068;-79
2022/06/23 08:31:32;;;;;;;7.82;3.80;;;21.60;99.90;;;;;;5063418;28;20068;-79
2022/06/23 08:34:00;;;;;;;12.90;4.68;;;21.60;99.90;;;;;;5062998;28;20488;-80
2022/06/23 08:36:36;;;;;;;8.73;4.00;;;21.70;99.90;;;;;;5064781;28;20542;-80
2022/06/23 08:39:12;;;;;;;9.40;3.95;;;21.80;99.90;;;;;;5059589;28;20045;-80
2022/06/23 08:41:49;;;;;;;8.25;4.15;;;21.80;99.90;;;;;;5057233;28;20051;-79
2022/06/23 08:44:39;;;;;;;8.07;3.53;;;21.80;99.90;;;;;;5060966;28;20357;-79
2022/06/23 08:47:18;;;;;;;7.93;3.40;;;21.70;99.90;;;;;;5061334;28;20473;-82
2022/06/23 08:49:55;;;;;;;6.15;3.83;;;21.70;99.90;;;;;;5061026;28;20041;-79
2022/06/23 08:52:31;;;;;;;5.32;3.03;;;21.70;99.90;;;;;;5060194;28;20071;-79
2022/06/23 08:55:08;;;;;;;5.68;2.50;;;21.70;99.90;;;;;;5062851;28;20183;-79
2022/06/23 08:57:34;;;;;;;6.18;2.63;;;21.80;99.90;;;;;;5061203;28;20056;-79
2022/06/23 09:00:06;;;;;;;7.40;4.03;;;21.80;99.90;;;;;;5077803;28;20966;-79
2022/06/23 09:02:40;;;;;;;6.93;3.17;;;21.80;99.90;;;;;;5061322;28;20573;-79
2022/06/23 09:05:34;;;;;;;3.40;2.67;;;21.80;99.90;;;;;;5064346;28;20036;-79
2022/06/23 09:08:08;;;;;;;6.00;2.40;;;21.90;99.90;;;;;;5061433;28;20091;-79
2022/06/23 09:10:53;;;;;;;5.55;2.70;;;22.00;99.90;;;;;;5077471;28;20136;-79
2022/06/23 09:14:23;;;;;;;7.65;2.97;;;22.00;99.90;;;;;;5063778;28;20049;-79
2022/06/23 09:17:07;;;;;;;4.28;2.70;;;22.00;99.90;;;;;;4928206;28;20056;-79
2022/06/23 09:19:46;;;;;;;5.60;3.10;;;22.00;99.90;;;;;;5058481;28;20052;-79
2022/06/23 09:22:38;;;;;;;5.47;3.47;;;22.00;99.90;;;;;;5060350;28;20151;-79
2022/06/23 09:25:28;;;;;;;6.45;3.15;;;22.00;99.90;;;;;;5061021;28;20049;-78
2022/06/23 09:28:08;;;;;;;5.13;2.42;;;22.00;99.90;;;;;;5062291;28;20086;-79
2022/06/23 09:30:43;;;;;;;4.60;2.58;;;22.00;99.90;;;;;;5060775;28;20064;-79
2022/06/23 09:33:36;;;;;;;2.92;2.22;;;22.10;99.90;;;;;;5062444;28;20037;-79
2022/06/23 09:36:27;;;;;;;4.07;2.65;;;22.20;99.90;;;;;;5060568;28;20064;-79
2022/06/23 09:39:18;;;;;;;4.78;3.17;;;22.20;99.90;;;;;;5061641;28;20041;-78
2022/06/23 09:41:46;;;;;;;5.75;3.13;;;22.30;99.90;;;;;;5061052;28;20055;-79
2022/06/23 09:44:30;;;;;;;5.18;2.72;;;22.30;99.90;;;;;;5059747;28;20056;-79
2022/06/23 09:47:34;;;;;;;5.38;3.63;;;22.40;99.90;;;;;;5062079;28;20609;-79
2022/06/23 09:50:31;;;;;;;4.57;3.40;;;22.60;99.90;;;;;;5060512;28;20369;-78
2022/06/23 09:53:46;;;;;;;3.63;2.42;;;22.60;99.90;;;;;;5060875;28;20076;-79
2022/06/23 09:56:39;;;;;;;5.03;2.78;;;22.70;99.90;;;;;;5063448;28;20044;-79
2022/06/23 09:59:14;;;;;;;4.95;2.35;;;22.80;99.90;;;;;;5059391;28;20103;-78
2022/06/23 10:01:46;;;;;;;5.57;2.30;;;22.80;99.90;;;;;;5074184;27;20134;-78
2022/06/23 10:04:44;;;;;;;;;;;22.90;99.90;;;;;;5062504;28;20047;-79
2022/06/23 10:07:13;;;;;;;4.55;2.42;;;22.90;99.90;;;;;;5036435;28;20007;-79
2022/06/23 10:09:57;;;;;;;5.53;2.55;;;22.90;99.90;;;;;;5079324;28;20604;-79
2022/06/23 10:12:53;;;;;;;7.35;2.35;;;22.80;99.90;;;;;;5059193;28;20041;-79
2022/06/23 10:15:28;;;;;;;6.55;2.38;;;22.80;99.90;;;;;;5005251;28;20112;-79
2022/06/23 10:18:03;;;;;;;3.85;2.28;;;22.70;99.90;;;;;;5055414;28;20045;-79
2022/06/23 10:21:12;;;;;;;2.90;1.80;;;22.60;99.90;;;;;;5060386;28;20052;-79
2022/06/23 10:23:38;;;;;;;4.75;2.40;;;22.50;99.90;;;;;;5062940;28;20082;-79
2022/06/23 10:26:04;;;;;;;7.60;2.95;;;22.50;99.90;;;;;;5062640;28;20118;-79
2022/06/23 10:28:48;;;;;;;4.00;2.47;;;22.50;99.90;;;;;;5064039;28;20048;-79
2022/06/23 10:31:43;;;;;;;6.00;2.60;;;22.40;99.90;;;;;;5062181;28;20054;-78
2022/06/23 10:34:31;;;;;;;2.83;2.05;;;22.50;99.90;;;;;;5063582;28;20033;-79
2022/06/23 10:37:28;;;;;;;3.03;1.92;;;22.60;99.90;;;;;;5055329;28;20053;-79
2022/06/23 10:40:02;;;;;;;6.57;2.50;;;22.80;99.90;;;;;;5067406;28;20526;-79
2022/06/23 10:42:43;;;;;;;5.75;2.28;;;22.90;99.90;;;;;;5066174;28;20056;-79
2022/06/23 10:45:39;;;;;;;3.72;2.40;;;23.00;99.90;;;;;;5066377;28;20098;-79
2022/06/23 10:48:30;;;;;;;4.03;2.22;;;23.00;99.90;;;;;;5066173;28;20049;-79
2022/06/23 10:51:10;;;;;;;3.05;1.95;;;23.00;99.90;;;;;;5067923;28;20044;-79
2022/06/23 10:54:10;;;;;;;5.55;2.28;;;23.10;99.90;;;;;;5065765;28;20041;-79
2022/06/23 10:56:56;;;;;;;4.03;2.10;;;23.30;99.90;;;;;;5067632;28;20076;-79
2022/06/23 10:59:30;;;;;;;5.57;2.15;;;23.60;99.90;;;;;;5066792;28;20044;-79
2022/06/23 11:02:20;;;;;;;3.72;2.22;;;23.70;99.90;;;;;;5067655;28;20077;-79
2022/06/23 11:04:48;;;;;;;4.85;2.13;;;23.80;99.90;;;;;;5067834;28;20710;-79
2022/06/23 11:07:27;;;;;;;3.63;2.55;;;23.80;99.90;;;;;;5082110;28;20337;-79
2022/06/23 11:10:07;;;;;;;4.70;2.42;;;23.80;99.90;;;;;;5067103;28;20076;-79
2022/06/23 11:13:03;;;;;;;4.35;2.00;;;23.90;99.90;;;;;;5066413;28;20037;-79
2022/06/23 11:16:00;;;;;;;4.75;2.40;;;23.80;99.90;;;;;;5065457;28;20040;-79
2022/06/23 11:18:44;;;;;;;8.40;2.40;;;23.70;99.90;;;;;;5063799;28;20045;-79
2022/06/23 11:21:33;;;;;;;4.68;2.05;;;23.70;99.90;;;;;;5067106;28;20055;-79
2022/06/23 11:24:16;;;;;;;2.88;1.88;;;23.60;99.90;;;;;;5065716;28;20095;-79
2022/06/23 11:27:09;;;;;;;2.85;2.10;;;23.50;99.90;;;;;;5064390;28;20051;-79
2022/06/23 11:29:40;;;;;;;3.35;2.13;;;23.40;99.90;;;;;;5066405;28;20051;-79
2022/06/23 11:32:26;;;;;;;3.80;1.70;;;23.30;99.90;;;;;;5081391;28;20087;-79
2022/06/23 11:35:07;;;;;;;2.47;1.38;;;23.30;99.90;;;;;;5066538;28;20513;-79
2022/06/23 11:37:52;;;;;;;2.80;1.60;;;23.20;99.90;;;;;;5066008;28;20595;-79
2022/06/23 11:40:47;;;;;;;2.60;1.83;;;23.20;99.90;;;;;;5066461;28;20055;-79
2022/06/23 11:43:20;;;;;;;2.50;1.60;;;23.20;99.90;;;;;;5064595;28;20572;-79
2022/06/23 11:46:05;;;;;;;4.72;2.13;;;23.20;99.90;;;;;;5064771;28;20793;-79
2022/06/23 11:48:48;;;;;;;6.88;2.08;;;23.30;99.90;;;;;;5064259;28;20052;-79
2022/06/23 11:51:32;;;;;;;6.35;2.47;;;23.30;99.90;;;;;;5066107;28;20416;-79
2022/06/23 11:54:35;;;;;;;2.33;1.95;;;23.30;99.90;;;;;;5066127;28;20109;-79
2022/06/23 11:57:50;;;;;;;7.15;2.05;;;23.40;99.90;;;;;;5063433;28;20107;-79
2022/06/23 12:00:19;;;;;;;3.63;1.67;;;23.50;99.90;;;;;;5032234;28;20502;-79
2022/06/23 12:03:01;;;;;;;3.17;1.80;;;23.50;99.90;;;;;;5067553;28;20037;-79
2022/06/23 12:05:39;;;;;;;2.63;1.60;;;23.50;99.90;;;;;;5064980;28;20811;-79
2022/06/23 12:08:52;;;;;;;4.22;1.45;;;23.50;99.90;;;;;;5082163;28;20045;-79
2022/06/23 12:11:19;;;;;;;2.08;1.48;;;23.50;99.90;;;;;;5045776;28;20162;-79
2022/06/23 12:13:46;;;;;;;4.72;1.95;;;23.40;99.90;;;;;;5066252;28;20118;-79
2022/06/23 12:16:12;;;;;;;2.33;1.40;;;23.50;99.90;;;;;;5063768;28;20053;-79
2022/06/23 12:18:49;;;;;;;3.08;1.50;;;23.50;99.90;;;;;;5082427;28;20476;-79
2022/06/23 12:21:40;;;;;;;2.25;1.48;;;23.50;99.90;;;;;;5064519;28;20040;-79
2022/06/23 12:24:29;;;;;;;2.00;1.50;;;23.50;99.90;;;;;;5065852;28;20033;-80
2022/06/23 12:27:04;;;;;;;3.85;1.58;;;23.60;99.90;;;;;;5060231;28;20057;-79
2022/06/23 12:29:37;;;;;;;2.05;1.48;;;23.50;99.90;;;;;;5066775;28;20567;-79
2022/06/23 12:32:24;;;;;;;2.47;1.55;;;23.60;99.90;;;;;;5081050;28;20055;-79
2022/06/23 12:35:13;;;;;;;6.25;1.73;;;23.70;99.90;;;;;;5062484;28;20049;-79
2022/06/23 12:38:10;;;;;;;4.15;1.83;;;23.70;99.90;;;;;;5063866;28;20764;-79
2022/06/23 12:40:54;;;;;;;4.03;1.55;;;23.70;99.90;;;;;;5065060;28;21068;-79
2022/06/23 12:43:39;;;;;;;1.45;1.05;;;23.70;99.90;;;;;;5046923;28;20103;-79
2022/06/23 12:46:13;;;;;;;2.67;1.45;;;23.70;99.90;;;;;;5066808;28;20048;-79
2022/06/23 12:49:19;;;;;;;2.42;1.42;;;23.70;99.90;;;;;;5063134;28;20045;-79
2022/06/23 12:52:03;;;;;;;4.47;1.60;;;23.70;99.90;;;;;;5066435;28;20064;-79
2022/06/23 12:55:01;;;;;;;1.90;1.38;;;23.70;99.90;;;;;;5065384;28;20041;-79
2022/06/23 12:57:28;;;;;;;2.97;1.38;;;23.70;99.90;;;;;;5064490;28;20198;-80
2022/06/23 13:00:05;;;;;;;2.05;1.17;;;23.80;99.90;;;;;;5063515;28;20060;-79
2022/06/23 13:02:37;;;;;;;3.80;1.80;;;23.90;99.90;;;;;;5048075;28;20040;-79
2022/06/23 13:05:15;;;;;;;4.85;1.33;;;23.90;99.90;;;;;;5062916;28;20548;-79
2022/06/23 13:07:56;;;;;;;4.25;1.45;;;23.90;99.90;;;;;;5064342;28;20037;-78
2022/06/23 13:10:46;;;;;;;3.08;1.20;;;24.00;99.90;;;;;;5065022;28;20056;-78
2022/06/23 13:13:21;;;;;;;2.35;1.00;;;24.00;99.90;;;;;;5061292;28;20052;-78
2022/06/23 13:16:03;;;;;;;1.85;1.35;;;24.00;99.90;;;;;;5059721;28;20032;-78
2022/06/23 13:18:42;;;;;;;2.55;1.30;;;24.00;99.90;;;;;;5056453;28;20601;-77
2022/06/23 13:21:32;;;;;;;3.35;1.75;;;24.00;99.90;;;;;;5061137;28;20055;-77
2022/06/23 13:24:01;;;;;;;2.53;1.30;;;24.00;99.90;;;;;;5059748;28;20048;-78
2022/06/23 13:26:34;;;;;;;2.83;1.40;;;24.10;99.90;;;;;;5061862;28;20171;-79
2022/06/23 13:29:06;;;;;;;6.88;1.80;;;24.10;99.50;;;;;;5057937;28;20045;-79
2022/06/23 13:31:46;;;;;;;2.42;1.23;;;24.10;99.20;;;;;;5058735;28;20041;-79
2022/06/23 13:34:27;;;;;;;2.75;1.33;;;24.10;99.20;;;;;;5060408;28;20084;-78
2022/06/23 13:37:17;;;;;;;1.85;1.20;;;24.10;99.30;;;;;;5058765;28;20132;-80
2022/06/23 13:40:13;;;;;;;4.90;1.17;;;24.20;99.00;;;;;;5059189;28;20041;-79
2022/06/23 13:42:57;;;;;;;2.35;1.10;;;24.40;98.90;;;;;;5061181;28;20057;-80
2022/06/23 13:45:35;;;;;;;2.10;1.35;;;24.50;98.60;;;;;;5062832;28;20103;-82
2022/06/23 13:48:34;;;;;;;2.90;1.10;;;24.50;98.50;;;;;;5059279;28;20501;-79
2022/06/23 13:51:09;;;;;;;3.25;1.52;;;24.60;98.50;;;;;;5061509;28;20045;-79
2022/06/23 13:53:53;;;;;;;2.50;1.70;;;24.60;98.30;;;;;;5063947;28;20045;-79
2022/06/23 13:56:38;;;;;;;3.05;1.30;;;24.70;97.60;;;;;;5064286;28;20047;-79
2022/06/23 13:59:22;;;;;;;3.38;1.30;;;24.70;97.40;;;;;;5061873;28;20045;-79
2022/06/23 14:02:01;;;;;;;3.17;1.08;;;24.80;96.50;;;;;;5063474;28;20036;-80